sensor_id;sensor_type;location;lat;lon;timestamp;temperature;humidity
67194;DHT22;54121;53.508;49.422;2023-03-14T00:01:09;0.10;60.90
67194;DHT22;54121;53.508;49.422;2023-03-14T00:03:36;0.20;61.10
67194;DHT22;54121;53.508;49.422;2023-03-14T00:06:04;0.20;60.70
67194;DHT22;54121;53.508;49.422;2023-03-14T00:08:30;0.10;60.90
67194;DHT22;54121;53.508;49.422;2023-03-14T00:10:57;0.20;60.90
67194;DHT22;54121;53.508;49.422;2023-03-14T00:13:25;0.20;60.40
67194;DHT22;54121;53.508;49.422;2023-03-14T00:15:51;0.20;60.10
67194;DHT22;54121;53.508;49.422;2023-03-14T00:18:20;0.30;59.80
67194;DHT22;54121;53.508;49.422;2023-03-14T00:20:47;0.30;59.10
67194;DHT22;54121;53.508;49.422;2023-03-14T00:23:13;0.30;59.00
67194;DHT22;54121;53.508;49.422;2023-03-14T00:25:40;0.30;59.00
67194;DHT22;54121;53.508;49.422;2023-03-14T00:28:06;0.30;58.50
67194;DHT22;54121;53.508;49.422;2023-03-14T00:30:33;0.30;58.40
67194;DHT22;54121;53.508;49.422;2023-03-14T00:32:59;0.30;58.30
67194;DHT22;54121;53.508;49.422;2023-03-14T00:35:26;0.30;57.90
67194;DHT22;54121;53.508;49.422;2023-03-14T00:37:54;0.20;57.90
67194;DHT22;54121;53.508;49.422;2023-03-14T00:40:20;0.10;57.90
67194;DHT22;54121;53.508;49.422;2023-03-14T00:42:47;0.10;58.00
67194;DHT22;54121;53.508;49.422;2023-03-14T00:45:13;0.10;57.80
67194;DHT22;54121;53.508;49.422;2023-03-14T00:47:40;0.10;57.90
67194;DHT22;54121;53.508;49.422;2023-03-14T00:50:12;0.10;57.80
67194;DHT22;54121;53.508;49.422;2023-03-14T00:52:38;0.20;57.90
67194;DHT22;54121;53.508;49.422;2023-03-14T00:55:05;0.20;57.60
67194;DHT22;54121;53.508;49.422;2023-03-14T00:57:32;0.20;57.40
67194;DHT22;54121;53.508;49.422;2023-03-14T00:59:59;0.10;57.40
67194;DHT22;54121;53.508;49.422;2023-03-14T01:02:26;0.10;57.60
67194;DHT22;54121;53.508;49.422;2023-03-14T01:04:54;0.10;57.60
67194;DHT22;54121;53.508;49.422;2023-03-14T01:07:21;0.10;57.60
67194;DHT22;54121;53.508;49.422;2023-03-14T01:09:51;0.10;57.70
67194;DHT22;54121;53.508;49.422;2023-03-14T01:12:18;0.10;57.80
67194;DHT22;54121;53.508;49.422;2023-03-14T01:14:45;0.10;57.60
67194;DHT22;54121;53.508;49.422;2023-03-14T01:17:12;0.10;57.60
67194;DHT22;54121;53.508;49.422;2023-03-14T01:19:39;0.00;57.80
67194;DHT22;54121;53.508;49.422;2023-03-14T01:22:06;0.00;58.00
67194;DHT22;54121;53.508;49.422;2023-03-14T01:24:33;0.00;58.10
67194;DHT22;54121;53.508;49.422;2023-03-14T01:26:59;0.00;57.90
67194;DHT22;54121;53.508;49.422;2023-03-14T01:29:26;0.00;57.90
67194;DHT22;54121;53.508;49.422;2023-03-14T01:31:53;0.00;58.10
67194;DHT22;54121;53.508;49.422;2023-03-14T01:34:20;-0.10;58.30
67194;DHT22;54121;53.508;49.422;2023-03-14T01:36:46;-0.10;58.40
67194;DHT22;54121;53.508;49.422;2023-03-14T01:39:13;0.00;58.30
67194;DHT22;54121;53.508;49.422;2023-03-14T01:41:41;-0.10;58.30
67194;DHT22;54121;53.508;49.422;2023-03-14T01:44:11;-0.10;58.30
67194;DHT22;54121;53.508;49.422;2023-03-14T01:46:45;-0.20;58.50
67194;DHT22;54121;53.508;49.422;2023-03-14T01:49:20;-0.10;58.30
67194;DHT22;54121;53.508;49.422;2023-03-14T01:54:55;-0.10;58.20
67194;DHT22;54121;53.508;49.422;2023-03-14T01:57:35;-0.20;58.50
67194;DHT22;54121;53.508;49.422;2023-03-14T02:00:07;-0.20;58.80
67194;DHT22;54121;53.508;49.422;2023-03-14T02:02:55;-1.10;58.00
67194;DHT22;54121;53.508;49.422;2023-03-14T02:05:27;-0.10;58.30
67194;DHT22;54121;53.508;49.422;2023-03-14T02:07:56;-0.10;58.10
67194;DHT22;54121;53.508;49.422;2023-03-14T02:10:26;-0.10;58.10
67194;DHT22;54121;53.508;49.422;2023-03-14T02:12:55;-0.10;58.20
67194;DHT22;54121;53.508;49.422;2023-03-14T02:15:23;-0.20;58.10
67194;DHT22;54121;53.508;49.422;2023-03-14T02:17:50;-0.20;58.20
67194;DHT22;54121;53.508;49.422;2023-03-14T02:23:05;-0.20;58.00
67194;DHT22;54121;53.508;49.422;2023-03-14T02:25:56;-0.20;58.00
67194;DHT22;54121;53.508;49.422;2023-03-14T02:28:24;-0.20;57.70
67194;DHT22;54121;53.508;49.422;2023-03-14T02:30:51;-0.20;57.90
67194;DHT22;54121;53.508;49.422;2023-03-14T02:33:20;-0.20;57.80
67194;DHT22;54121;53.508;49.422;2023-03-14T02:35:55;-0.10;57.80
67194;DHT22;54121;53.508;49.422;2023-03-14T02:40:54;-0.10;57.80
67194;DHT22;54121;53.508;49.422;2023-03-14T02:43:21;-0.20;57.80
67194;DHT22;54121;53.508;49.422;2023-03-14T02:45:49;-0.20;58.00
67194;DHT22;54121;53.508;49.422;2023-03-14T02:48:28;-0.20;58.20
67194;DHT22;54121;53.508;49.422;2023-03-14T02:50:58;-0.30;58.20
67194;DHT22;54121;53.508;49.422;2023-03-14T02:53:28;-0.40;58.40
67194;DHT22;54121;53.508;49.422;2023-03-14T02:55:55;-0.30;58.50
67194;DHT22;54121;53.508;49.422;2023-03-14T02:58:22;-0.30;58.60
67194;DHT22;54121;53.508;49.422;2023-03-14T03:00:49;-0.30;59.20
67194;DHT22;54121;53.508;49.422;2023-03-14T03:03:15;-0.40;58.70
67194;DHT22;54121;53.508;49.422;2023-03-14T03:05:42;-0.30;58.70
67194;DHT22;54121;53.508;49.422;2023-03-14T03:08:10;-0.30;58.80
67194;DHT22;54121;53.508;49.422;2023-03-14T03:10:37;-0.30;58.90
67194;DHT22;54121;53.508;49.422;2023-03-14T03:13:03;-0.30;59.10
67194;DHT22;54121;53.508;49.422;2023-03-14T03:15:30;1.90;60.50
67194;DHT22;54121;53.508;49.422;2023-03-14T03:17:56;-0.30;59.60
67194;DHT22;54121;53.508;49.422;2023-03-14T03:20:23;-0.30;59.80
67194;DHT22;54121;53.508;49.422;2023-03-14T03:22:49;-0.10;59.30
67194;DHT22;54121;53.508;49.422;2023-03-14T03:25:16;0.00;58.90
67194;DHT22;54121;53.508;49.422;2023-03-14T03:27:43;0.20;58.50
67194;DHT22;54121;53.508;49.422;2023-03-14T03:30:09;0.30;57.80
67194;DHT22;54121;53.508;49.422;2023-03-14T03:32:36;0.20;58.00
67194;DHT22;54121;53.508;49.422;2023-03-14T03:35:04;0.30;57.70
67194;DHT22;54121;53.508;49.422;2023-03-14T03:37:31;0.40;57.50
67194;DHT22;54121;53.508;49.422;2023-03-14T03:39:58;0.50;57.50
67194;DHT22;54121;53.508;49.422;2023-03-14T03:42:27;0.50;58.30
67194;DHT22;54121;53.508;49.422;2023-03-14T03:44:53;0.50;57.00
67194;DHT22;54121;53.508;49.422;2023-03-14T03:47:20;0.60;56.70
67194;DHT22;54121;53.508;49.422;2023-03-14T03:49:47;0.60;56.90
67194;DHT22;54121;53.508;49.422;2023-03-14T03:52:14;0.70;56.50
67194;DHT22;54121;53.508;49.422;2023-03-14T03:54:40;0.70;56.40
67194;DHT22;54121;53.508;49.422;2023-03-14T03:57:07;0.90;56.10
67194;DHT22;54121;53.508;49.422;2023-03-14T03:59:33;0.90;56.10
67194;DHT22;54121;53.508;49.422;2023-03-14T04:02:00;0.90;55.70
67194;DHT22;54121;53.508;49.422;2023-03-14T04:04:27;1.00;56.00
67194;DHT22;54121;53.508;49.422;2023-03-14T04:06:53;1.20;55.50
67194;DHT22;54121;53.508;49.422;2023-03-14T04:09:20;1.50;54.40
67194;DHT22;54121;53.508;49.422;2023-03-14T04:11:46;1.90;53.30
67194;DHT22;54121;53.508;49.422;2023-03-14T04:14:13;2.30;51.90
67194;DHT22;54121;53.508;49.422;2023-03-14T04:16:40;2.60;51.10
67194;DHT22;54121;53.508;49.422;2023-03-14T04:19:06;2.70;50.00
67194;DHT22;54121;53.508;49.422;2023-03-14T04:21:33;3.00;49.80
67194;DHT22;54121;53.508;49.422;2023-03-14T04:23:59;3.30;49.40
67194;DHT22;54121;53.508;49.422;2023-03-14T04:26:26;3.90;47.60
67194;DHT22;54121;53.508;49.422;2023-03-14T04:28:53;4.60;45.70
67194;DHT22;54121;53.508;49.422;2023-03-14T04:31:21;5.40;43.40
67194;DHT22;54121;53.508;49.422;2023-03-14T04:33:48;5.80;41.60
67194;DHT22;54121;53.508;49.422;2023-03-14T04:36:15;6.50;40.40
67194;DHT22;54121;53.508;49.422;2023-03-14T04:38:41;7.30;38.80
67194;DHT22;54121;53.508;49.422;2023-03-14T04:41:08;7.70;36.40
67194;DHT22;54121;53.508;49.422;2023-03-14T04:43:34;8.10;35.70
67194;DHT22;54121;53.508;49.422;2023-03-14T04:46:01;7.40;33.80
67194;DHT22;54121;53.508;49.422;2023-03-14T04:48:28;8.60;34.70
67194;DHT22;54121;53.508;49.422;2023-03-14T04:50:55;9.50;32.90
67194;DHT22;54121;53.508;49.422;2023-03-14T04:53:22;10.10;31.80
67194;DHT22;54121;53.508;49.422;2023-03-14T04:55:53;10.60;31.00
67194;DHT22;54121;53.508;49.422;2023-03-14T04:58:20;11.20;29.90
67194;DHT22;54121;53.508;49.422;2023-03-14T05:00:47;11.40;29.30
67194;DHT22;54121;53.508;49.422;2023-03-14T05:03:16;12.10;28.60
67194;DHT22;54121;53.508;49.422;2023-03-14T05:05:42;12.40;27.90
67194;DHT22;54121;53.508;49.422;2023-03-14T05:08:09;12.70;27.30
67194;DHT22;54121;53.508;49.422;2023-03-14T05:10:36;13.10;27.00
67194;DHT22;54121;53.508;49.422;2023-03-14T05:13:03;13.20;26.60
67194;DHT22;54121;53.508;49.422;2023-03-14T05:15:30;13.30;25.50
67194;DHT22;54121;53.508;49.422;2023-03-14T05:17:56;13.50;25.70
67194;DHT22;54121;53.508;49.422;2023-03-14T05:20:23;14.10;24.60
67194;DHT22;54121;53.508;49.422;2023-03-14T05:22:49;14.60;24.30
67194;DHT22;54121;53.508;49.422;2023-03-14T05:25:16;15.40;23.60
67194;DHT22;54121;53.508;49.422;2023-03-14T05:27:42;15.80;23.10
67194;DHT22;54121;53.508;49.422;2023-03-14T05:30:09;16.20;22.40
67194;DHT22;54121;53.508;49.422;2023-03-14T05:32:36;16.40;22.40
67194;DHT22;54121;53.508;49.422;2023-03-14T05:35:03;17.10;21.50
67194;DHT22;54121;53.508;49.422;2023-03-14T05:37:29;17.40;21.00
67194;DHT22;54121;53.508;49.422;2023-03-14T05:39:56;17.40;20.80
67194;DHT22;54121;53.508;49.422;2023-03-14T05:42:22;17.70;20.70
67194;DHT22;54121;53.508;49.422;2023-03-14T05:44:48;17.70;20.50
67194;DHT22;54121;53.508;49.422;2023-03-14T05:47:15;17.60;21.00
67194;DHT22;54121;53.508;49.422;2023-03-14T05:49:42;18.10;20.30
67194;DHT22;54121;53.508;49.422;2023-03-14T05:52:08;18.20;19.60
67194;DHT22;54121;53.508;49.422;2023-03-14T05:54:35;18.40;19.90
67194;DHT22;54121;53.508;49.422;2023-03-14T05:57:02;18.50;19.60
67194;DHT22;54121;53.508;49.422;2023-03-14T05:59:29;18.80;19.60
67194;DHT22;54121;53.508;49.422;2023-03-14T06:01:55;18.90;19.50
67194;DHT22;54121;53.508;49.422;2023-03-14T06:04:22;18.90;19.30
67194;DHT22;54121;53.508;49.422;2023-03-14T06:06:49;18.60;19.80
67194;DHT22;54121;53.508;49.422;2023-03-14T06:09:16;18.50;20.10
67194;DHT22;54121;53.508;49.422;2023-03-14T06:11:42;18.60;20.40
67194;DHT22;54121;53.508;49.422;2023-03-14T06:14:09;18.00;20.80
67194;DHT22;54121;53.508;49.422;2023-03-14T06:16:36;17.60;20.60
67194;DHT22;54121;53.508;49.422;2023-03-14T06:19:02;18.10;20.70
67194;DHT22;54121;53.508;49.422;2023-03-14T06:21:29;19.10;19.70
67194;DHT22;54121;53.508;49.422;2023-03-14T06:23:56;20.30;18.20
67194;DHT22;54121;53.508;49.422;2023-03-14T06:26:22;20.30;17.90
67194;DHT22;54121;53.508;49.422;2023-03-14T06:28:49;20.10;17.90
67194;DHT22;54121;53.508;49.422;2023-03-14T06:31:17;20.00;18.30
67194;DHT22;54121;53.508;49.422;2023-03-14T06:33:44;20.10;18.60
67194;DHT22;54121;53.508;49.422;2023-03-14T06:36:10;19.10;19.80
67194;DHT22;54121;53.508;49.422;2023-03-14T06:38:37;18.70;19.80
67194;DHT22;54121;53.508;49.422;2023-03-14T06:41:06;18.60;20.50
67194;DHT22;54121;53.508;49.422;2023-03-14T06:43:32;18.50;19.80
67194;DHT22;54121;53.508;49.422;2023-03-14T06:45:59;17.90;20.70
67194;DHT22;54121;53.508;49.422;2023-03-14T06:48:26;17.70;21.00
67194;DHT22;54121;53.508;49.422;2023-03-14T06:50:53;18.50;20.20
67194;DHT22;54121;53.508;49.422;2023-03-14T06:53:19;21.60;17.00
67194;DHT22;54121;53.508;49.422;2023-03-14T06:55:46;22.60;15.80
67194;DHT22;54121;53.508;49.422;2023-03-14T06:58:13;23.40;15.00
67194;DHT22;54121;53.508;49.422;2023-03-14T07:00:39;24.60;13.70
67194;DHT22;54121;53.508;49.422;2023-03-14T07:03:06;22.30;15.70
67194;DHT22;54121;53.508;49.422;2023-03-14T07:05:33;21.70;15.90
67194;DHT22;54121;53.508;49.422;2023-03-14T07:07:59;22.60;15.20
67194;DHT22;54121;53.508;49.422;2023-03-14T07:10:26;21.20;16.20
67194;DHT22;54121;53.508;49.422;2023-03-14T07:12:53;20.80;16.50
67194;DHT22;54121;53.508;49.422;2023-03-14T07:15:20;21.20;17.50
67194;DHT22;54121;53.508;49.422;2023-03-14T07:17:47;20.70;17.00
67194;DHT22;54121;53.508;49.422;2023-03-14T07:20:15;21.40;17.20
67194;DHT22;54121;53.508;49.422;2023-03-14T07:22:41;22.10;15.90
67194;DHT22;54121;53.508;49.422;2023-03-14T07:25:08;22.70;15.50
67194;DHT22;54121;53.508;49.422;2023-03-14T07:27:38;24.90;13.60
67194;DHT22;54121;53.508;49.422;2023-03-14T07:30:05;24.40;13.00
67194;DHT22;54121;53.508;49.422;2023-03-14T07:32:32;24.40;13.50
67194;DHT22;54121;53.508;49.422;2023-03-14T07:34:59;24.50;13.70
67194;DHT22;54121;53.508;49.422;2023-03-14T07:37:25;23.80;14.00
67194;DHT22;54121;53.508;49.422;2023-03-14T07:39:52;24.30;14.10
67194;DHT22;54121;53.508;49.422;2023-03-14T07:42:18;25.20;12.80
67194;DHT22;54121;53.508;49.422;2023-03-14T07:44:45;25.20;12.70
67194;DHT22;54121;53.508;49.422;2023-03-14T07:47:12;24.10;13.60
67194;DHT22;54121;53.508;49.422;2023-03-14T07:49:38;24.90;12.80
67194;DHT22;54121;53.508;49.422;2023-03-14T07:52:05;24.40;13.20
67194;DHT22;54121;53.508;49.422;2023-03-14T07:54:32;24.90;13.00
67194;DHT22;54121;53.508;49.422;2023-03-14T07:56:58;24.70;13.00
67194;DHT22;54121;53.508;49.422;2023-03-14T07:59:27;24.90;13.20
67194;DHT22;54121;53.508;49.422;2023-03-14T08:01:54;24.30;13.10
67194;DHT22;54121;53.508;49.422;2023-03-14T08:04:20;23.80;13.50
67194;DHT22;54121;53.508;49.422;2023-03-14T08:06:47;23.90;13.50
67194;DHT22;54121;53.508;49.422;2023-03-14T08:09:13;23.50;13.90
67194;DHT22;54121;53.508;49.422;2023-03-14T08:11:40;23.80;13.60
67194;DHT22;54121;53.508;49.422;2023-03-14T08:14:06;23.50;13.90
67194;DHT22;54121;53.508;49.422;2023-03-14T08:16:33;23.60;13.60
67194;DHT22;54121;53.508;49.422;2023-03-14T08:18:59;22.70;13.30
67194;DHT22;54121;53.508;49.422;2023-03-14T08:21:26;21.90;15.60
67194;DHT22;54121;53.508;49.422;2023-03-14T08:23:52;23.00;14.50
67194;DHT22;54121;53.508;49.422;2023-03-14T08:26:19;21.00;14.70
67194;DHT22;54121;53.508;49.422;2023-03-14T08:28:45;21.00;15.20
67194;DHT22;54121;53.508;49.422;2023-03-14T08:31:12;21.60;14.60
67194;DHT22;54121;53.508;49.422;2023-03-14T08:33:38;21.80;14.40
67194;DHT22;54121;53.508;49.422;2023-03-14T08:36:05;21.90;14.50
67194;DHT22;54121;53.508;49.422;2023-03-14T08:38:32;21.60;15.10
67194;DHT22;54121;53.508;49.422;2023-03-14T08:40:59;21.50;15.50
67194;DHT22;54121;53.508;49.422;2023-03-14T08:43:27;21.70;15.00
67194;DHT22;54121;53.508;49.422;2023-03-14T08:45:53;20.90;15.10
67194;DHT22;54121;53.508;49.422;2023-03-14T08:48:23;19.20;16.30
67194;DHT22;54121;53.508;49.422;2023-03-14T08:50:50;18.30;17.30
67194;DHT22;54121;53.508;49.422;2023-03-14T08:53:17;19.70;16.50
67194;DHT22;54121;53.508;49.422;2023-03-14T08:55:44;20.70;16.10
67194;DHT22;54121;53.508;49.422;2023-03-14T08:58:11;20.90;16.00
67194;DHT22;54121;53.508;49.422;2023-03-14T09:00:38;20.60;15.70
67194;DHT22;54121;53.508;49.422;2023-03-14T09:03:05;20.90;16.00
67194;DHT22;54121;53.508;49.422;2023-03-14T09:05:33;19.90;16.10
67194;DHT22;54121;53.508;49.422;2023-03-14T09:08:01;20.90;16.00
67194;DHT22;54121;53.508;49.422;2023-03-14T09:10:27;21.40;15.20
67194;DHT22;54121;53.508;49.422;2023-03-14T09:12:54;21.60;15.00
67194;DHT22;54121;53.508;49.422;2023-03-14T09:15:21;21.30;15.30
67194;DHT22;54121;53.508;49.422;2023-03-14T09:17:48;21.60;15.30
67194;DHT22;54121;53.508;49.422;2023-03-14T09:20:16;21.80;15.40
67194;DHT22;54121;53.508;49.422;2023-03-14T09:22:43;22.20;14.60
67194;DHT22;54121;53.508;49.422;2023-03-14T09:25:10;22.60;14.70
67194;DHT22;54121;53.508;49.422;2023-03-14T09:27:37;22.80;13.50
67194;DHT22;54121;53.508;49.422;2023-03-14T09:30:04;23.00;13.50
67194;DHT22;54121;53.508;49.422;2023-03-14T09:32:31;22.90;14.00
67194;DHT22;54121;53.508;49.422;2023-03-14T09:35:01;22.00;13.70
67194;DHT22;54121;53.508;49.422;2023-03-14T09:37:28;22.80;13.50
67194;DHT22;54121;53.508;49.422;2023-03-14T09:39:55;22.10;14.60
67194;DHT22;54121;53.508;49.422;2023-03-14T09:42:25;23.10;13.60
67194;DHT22;54121;53.508;49.422;2023-03-14T09:47:23;22.80;13.40
67194;DHT22;54121;53.508;49.422;2023-03-14T09:49:50;22.30;13.50
67194;DHT22;54121;53.508;49.422;2023-03-14T09:52:35;22.50;13.60
67194;DHT22;54121;53.508;49.422;2023-03-14T09:55:12;23.00;13.00
67194;DHT22;54121;53.508;49.422;2023-03-14T09:57:39;22.50;13.40
67194;DHT22;54121;53.508;49.422;2023-03-14T10:00:16;22.70;13.00
67194;DHT22;54121;53.508;49.422;2023-03-14T10:02:50;21.10;14.30
67194;DHT22;54121;53.508;49.422;2023-03-14T10:05:21;20.50;14.40
67194;DHT22;54121;53.508;49.422;2023-03-14T10:07:48;19.20;15.10
67194;DHT22;54121;53.508;49.422;2023-03-14T10:10:25;21.50;13.90
67194;DHT22;54121;53.508;49.422;2023-03-14T10:15:43;19.20;14.40
67194;DHT22;54121;53.508;49.422;2023-03-14T10:18:14;20.90;14.10
67194;DHT22;54121;53.508;49.422;2023-03-14T10:20:45;22.50;13.20
67194;DHT22;54121;53.508;49.422;2023-03-14T10:25:48;23.40;12.70
67194;DHT22;54121;53.508;49.422;2023-03-14T10:28:29;23.30;13.00
67194;DHT22;54121;53.508;49.422;2023-03-14T10:30:58;23.90;12.60
67194;DHT22;54121;53.508;49.422;2023-03-14T10:33:27;24.00;12.10
67194;DHT22;54121;53.508;49.422;2023-03-14T10:36:00;24.30;12.10
67194;DHT22;54121;53.508;49.422;2023-03-14T10:38:33;24.40;12.00
67194;DHT22;54121;53.508;49.422;2023-03-14T10:41:01;24.70;12.10
67194;DHT22;54121;53.508;49.422;2023-03-14T10:43:35;24.70;12.20
67194;DHT22;54121;53.508;49.422;2023-03-14T10:46:12;25.20;11.80
67194;DHT22;54121;53.508;49.422;2023-03-14T10:48:40;24.60;11.80
67194;DHT22;54121;53.508;49.422;2023-03-14T10:56:18;25.10;11.90
67194;DHT22;54121;53.508;49.422;2023-03-14T10:58:47;22.50;13.10
67194;DHT22;54121;53.508;49.422;2023-03-14T11:01:27;23.60;13.20
67194;DHT22;54121;53.508;49.422;2023-03-14T11:04:19;24.30;12.10
67194;DHT22;54121;53.508;49.422;2023-03-14T11:09:35;25.40;11.30
67194;DHT22;54121;53.508;49.422;2023-03-14T11:14:48;25.30;11.30
67194;DHT22;54121;53.508;49.422;2023-03-14T11:31:26;24.30;10.30
67194;DHT22;54121;53.508;49.422;2023-03-14T11:37:15;23.10;10.70
67194;DHT22;54121;53.508;49.422;2023-03-14T11:39:44;22.70;10.00
67194;DHT22;54121;53.508;49.422;2023-03-14T11:42:16;22.60;10.70
67194;DHT22;54121;53.508;49.422;2023-03-14T11:44:47;22.10;11.40
67194;DHT22;54121;53.508;49.422;2023-03-14T11:47:37;20.90;12.40
67194;DHT22;54121;53.508;49.422;2023-03-14T11:50:21;21.00;12.00
67194;DHT22;54121;53.508;49.422;2023-03-14T11:52:54;19.90;12.30
67194;DHT22;54121;53.508;49.422;2023-03-14T11:55:32;19.50;13.40
67194;DHT22;54121;53.508;49.422;2023-03-14T11:58:23;17.70;14.80
67194;DHT22;54121;53.508;49.422;2023-03-14T12:00:54;19.20;14.40
67194;DHT22;54121;53.508;49.422;2023-03-14T12:03:45;17.60;15.70
67194;DHT22;54121;53.508;49.422;2023-03-14T12:06:40;18.80;15.30
67194;DHT22;54121;53.508;49.422;2023-03-14T12:09:13;16.10;18.10
67194;DHT22;54121;53.508;49.422;2023-03-14T12:11:56;17.70;17.10
67194;DHT22;54121;53.508;49.422;2023-03-14T12:14:34;17.40;17.70
67194;DHT22;54121;53.508;49.422;2023-03-14T12:19:40;17.00;18.80
67194;DHT22;54121;53.508;49.422;2023-03-14T12:22:18;17.10;18.60
67194;DHT22;54121;53.508;49.422;2023-03-14T12:24:51;15.40;21.00
67194;DHT22;54121;53.508;49.422;2023-03-14T12:27:48;15.90;20.80
67194;DHT22;54121;53.508;49.422;2023-03-14T12:30:25;16.30;20.50
67194;DHT22;54121;53.508;49.422;2023-03-14T12:35:51;15.40;21.70
67194;DHT22;54121;53.508;49.422;2023-03-14T12:41:44;15.30;21.00
67194;DHT22;54121;53.508;49.422;2023-03-14T12:49:54;14.40;22.90
67194;DHT22;54121;53.508;49.422;2023-03-14T12:52:41;14.60;22.50
67194;DHT22;54121;53.508;49.422;2023-03-14T13:00:39;15.40;21.10
67194;DHT22;54121;53.508;49.422;2023-03-14T13:05:59;15.90;20.60
67194;DHT22;54121;53.508;49.422;2023-03-14T13:08:42;16.80;19.20
67194;DHT22;54121;53.508;49.422;2023-03-14T13:11:21;16.90;18.80
67194;DHT22;54121;53.508;49.422;2023-03-14T13:13:56;16.70;19.20
67194;DHT22;54121;53.508;49.422;2023-03-14T13:16:24;15.60;19.80
67194;DHT22;54121;53.508;49.422;2023-03-14T13:19:25;15.90;19.60
67194;DHT22;54121;53.508;49.422;2023-03-14T13:21:59;15.10;20.60
67194;DHT22;54121;53.508;49.422;2023-03-14T13:24:28;13.60;20.70
67194;DHT22;54121;53.508;49.422;2023-03-14T13:26:57;12.60;22.10
67194;DHT22;54121;53.508;49.422;2023-03-14T13:29:29;12.90;21.60
67194;DHT22;54121;53.508;49.422;2023-03-14T13:32:01;13.60;21.80
67194;DHT22;54121;53.508;49.422;2023-03-14T13:34:31;14.90;20.60
67194;DHT22;54121;53.508;49.422;2023-03-14T13:36:57;14.80;19.70
67194;DHT22;54121;53.508;49.422;2023-03-14T13:39:26;15.00;19.80
67194;DHT22;54121;53.508;49.422;2023-03-14T13:41:59;14.60;19.70
67194;DHT22;54121;53.508;49.422;2023-03-14T13:44:27;14.70;19.80
67194;DHT22;54121;53.508;49.422;2023-03-14T13:47:03;13.80;20.20
67194;DHT22;54121;53.508;49.422;2023-03-14T13:49:33;12.20;22.40
67194;DHT22;54121;53.508;49.422;2023-03-14T13:52:02;12.80;22.40
67194;DHT22;54121;53.508;49.422;2023-03-14T13:54:31;12.80;22.20
67194;DHT22;54121;53.508;49.422;2023-03-14T13:57:02;13.20;21.70
67194;DHT22;54121;53.508;49.422;2023-03-14T13:59:34;13.50;21.50
67194;DHT22;54121;53.508;49.422;2023-03-14T14:02:06;13.60;21.60
67194;DHT22;54121;53.508;49.422;2023-03-14T14:04:36;13.40;22.20
67194;DHT22;54121;53.508;49.422;2023-03-14T14:07:08;11.70;23.10
67194;DHT22;54121;53.508;49.422;2023-03-14T14:09:42;11.50;24.40
67194;DHT22;54121;53.508;49.422;2023-03-14T14:12:15;11.00;24.90
67194;DHT22;54121;53.508;49.422;2023-03-14T14:14:50;10.80;25.40
67194;DHT22;54121;53.508;49.422;2023-03-14T14:17:36;11.60;24.90
67194;DHT22;54121;53.508;49.422;2023-03-14T14:20:08;12.30;24.30
67194;DHT22;54121;53.508;49.422;2023-03-14T14:22:35;11.30;24.40
67194;DHT22;54121;53.508;49.422;2023-03-14T14:25:03;11.00;25.90
67194;DHT22;54121;53.508;49.422;2023-03-14T14:27:36;11.30;25.10
67194;DHT22;54121;53.508;49.422;2023-03-14T14:32:46;10.50;26.40
67194;DHT22;54121;53.508;49.422;2023-03-14T14:35:42;10.10;27.40
67194;DHT22;54121;53.508;49.422;2023-03-14T14:38:17;9.80;27.50
67194;DHT22;54121;53.508;49.422;2023-03-14T14:40:46;10.20;27.40
67194;DHT22;54121;53.508;49.422;2023-03-14T14:43:23;9.60;28.10
67194;DHT22;54121;53.508;49.422;2023-03-14T14:45:52;9.60;28.10
67194;DHT22;54121;53.508;49.422;2023-03-14T14:48:22;8.50;29.70
67194;DHT22;54121;53.508;49.422;2023-03-14T14:50:59;8.10;30.70
67194;DHT22;54121;53.508;49.422;2023-03-14T14:53:30;8.10;30.80
67194;DHT22;54121;53.508;49.422;2023-03-14T14:56:03;8.20;30.80
67194;DHT22;54121;53.508;49.422;2023-03-14T14:58:41;7.90;31.50
67194;DHT22;54121;53.508;49.422;2023-03-14T15:03:43;8.00;31.40
67194;DHT22;54121;53.508;49.422;2023-03-14T15:06:12;7.60;32.40
67194;DHT22;54121;53.508;49.422;2023-03-14T15:08:39;7.60;32.60
67194;DHT22;54121;53.508;49.422;2023-03-14T15:11:16;7.60;32.80
67194;DHT22;54121;53.508;49.422;2023-03-14T15:13:44;7.40;33.40
67194;DHT22;54121;53.508;49.422;2023-03-14T15:16:12;8.30;33.80
67194;DHT22;54121;53.508;49.422;2023-03-14T15:18:40;7.20;33.80
67194;DHT22;54121;53.508;49.422;2023-03-14T15:21:10;7.00;34.40
67194;DHT22;54121;53.508;49.422;2023-03-14T15:23:38;6.80;35.00
67194;DHT22;54121;53.508;49.422;2023-03-14T15:26:13;6.70;35.50
67194;DHT22;54121;53.508;49.422;2023-03-14T15:28:40;6.60;35.80
67194;DHT22;54121;53.508;49.422;2023-03-14T15:31:11;6.40;36.30
67194;DHT22;54121;53.508;49.422;2023-03-14T15:33:38;6.10;36.80
67194;DHT22;54121;53.508;49.422;2023-03-14T15:36:16;6.10;37.00
67194;DHT22;54121;53.508;49.422;2023-03-14T15:38:49;6.20;37.20
67194;DHT22;54121;53.508;49.422;2023-03-14T15:41:18;5.80;38.00
67194;DHT22;54121;53.508;49.422;2023-03-14T15:43:46;5.40;39.40
67194;DHT22;54121;53.508;49.422;2023-03-14T15:46:14;5.00;40.30
67194;DHT22;54121;53.508;49.422;2023-03-14T15:48:41;5.00;40.70
67194;DHT22;54121;53.508;49.422;2023-03-14T15:51:08;5.00;40.80
67194;DHT22;54121;53.508;49.422;2023-03-14T15:53:35;4.70;41.70
67194;DHT22;54121;53.508;49.422;2023-03-14T15:56:06;4.70;42.10
67194;DHT22;54121;53.508;49.422;2023-03-14T15:58:33;4.50;42.70
67194;DHT22;54121;53.508;49.422;2023-03-14T16:01:03;4.20;43.80
67194;DHT22;54121;53.508;49.422;2023-03-14T16:03:29;4.10;44.60
67194;DHT22;54121;53.508;49.422;2023-03-14T16:05:56;3.80;45.20
67194;DHT22;54121;53.508;49.422;2023-03-14T16:08:23;3.50;46.40
67194;DHT22;54121;53.508;49.422;2023-03-14T16:10:52;3.50;47.00
67194;DHT22;54121;53.508;49.422;2023-03-14T16:13:19;3.30;47.60
67194;DHT22;54121;53.508;49.422;2023-03-14T16:15:59;3.20;48.20
67194;DHT22;54121;53.508;49.422;2023-03-14T16:18:27;3.10;49.10
67194;DHT22;54121;53.508;49.422;2023-03-14T16:20:56;3.00;49.30
67194;DHT22;54121;53.508;49.422;2023-03-14T16:23:24;3.00;49.40
67194;DHT22;54121;53.508;49.422;2023-03-14T16:25:52;2.90;49.80
67194;DHT22;54121;53.508;49.422;2023-03-14T16:28:19;2.90;50.10
67194;DHT22;54121;53.508;49.422;2023-03-14T16:30:47;2.90;50.20
67194;DHT22;54121;53.508;49.422;2023-03-14T16:33:18;2.90;50.50
67194;DHT22;54121;53.508;49.422;2023-03-14T16:35:59;2.90;50.50
67194;DHT22;54121;53.508;49.422;2023-03-14T16:38:27;2.80;50.70
67194;DHT22;54121;53.508;49.422;2023-03-14T16:41:17;2.80;52.50
67194;DHT22;54121;53.508;49.422;2023-03-14T16:43:44;2.70;51.80
67194;DHT22;54121;53.508;49.422;2023-03-14T16:46:14;2.70;52.40